sensor_id;sensor_type;location;lat;lon;timestamp;P1;durP1;ratioP1;P2;durP2;ratioP2
26536;SDS011;14204;51.262;5.488;2023-02-26T00:00:07;14.75;;;4.90;;
26536;SDS011;14204;51.262;5.488;2023-02-26T00:02:37;16.63;;;5.37;;
26536;SDS011;14204;51.262;5.488;2023-02-26T00:05:04;19.58;;;5.00;;
26536;SDS011;14204;51.262;5.488;2023-02-26T00:07:30;13.57;;;3.95;;
26536;SDS011;14204;51.262;5.488;2023-02-26T00:09:56;12.05;;;4.32;;
26536;SDS011;14204;51.262;5.488;2023-02-26T00:12:21;13.20;;;4.50;;
26536;SDS011;14204;51.262;5.488;2023-02-26T00:14:47;15.15;;;4.50;;
26536;SDS011;14204;51.262;5.488;2023-02-26T00:19:47;16.63;;;4.78;;
26536;SDS011;14204;51.262;5.488;2023-02-26T00:22:13;10.27;;;4.30;;
26536;SDS011;14204;51.262;5.488;2023-02-26T00:24:39;14.43;;;4.30;;
26536;SDS011;14204;51.262;5.488;2023-02-26T00:27:06;12.75;;;4.55;;
26536;SDS011;14204;51.262;5.488;2023-02-26T00:29:32;12.55;;;4.93;;
26536;SDS011;14204;51.262;5.488;2023-02-26T00:31:57;13.88;;;4.47;;
26536;SDS011;14204;51.262;5.488;2023-02-26T00:34:23;10.98;;;3.90;;
26536;SDS011;14204;51.262;5.488;2023-02-26T00:36:51;20.48;;;4.88;;
26536;SDS011;14204;51.262;5.488;2023-02-26T00:42:09;16.33;;;4.95;;
26536;SDS011;14204;51.262;5.488;2023-02-26T00:44:35;18.05;;;4.53;;
26536;SDS011;14204;51.262;5.488;2023-02-26T00:55:18;12.95;;;4.53;;
26536;SDS011;14204;51.262;5.488;2023-02-26T00:57:45;11.95;;;4.55;;
26536;SDS011;14204;51.262;5.488;2023-02-26T01:00:11;15.35;;;4.55;;
26536;SDS011;14204;51.262;5.488;2023-02-26T01:02:37;8.82;;;3.85;;
26536;SDS011;14204;51.262;5.488;2023-02-26T01:05:04;12.88;;;5.20;;
26536;SDS011;14204;51.262;5.488;2023-02-26T01:07:33;12.98;;;3.97;;
26536;SDS011;14204;51.262;5.488;2023-02-26T01:10:16;9.00;;;4.47;;
26536;SDS011;14204;51.262;5.488;2023-02-26T01:12:42;11.30;;;4.65;;
26536;SDS011;14204;51.262;5.488;2023-02-26T01:15:08;17.00;;;4.88;;
26536;SDS011;14204;51.262;5.488;2023-02-26T01:17:37;11.45;;;5.07;;
26536;SDS011;14204;51.262;5.488;2023-02-26T01:25:37;12.07;;;5.45;;
26536;SDS011;14204;51.262;5.488;2023-02-26T01:28:15;12.48;;;4.72;;
26536;SDS011;14204;51.262;5.488;2023-02-26T01:30:41;12.05;;;4.57;;
26536;SDS011;14204;51.262;5.488;2023-02-26T01:33:16;14.77;;;4.85;;
26536;SDS011;14204;51.262;5.488;2023-02-26T01:35:59;16.63;;;5.07;;
26536;SDS011;14204;51.262;5.488;2023-02-26T01:38:34;17.00;;;5.10;;
26536;SDS011;14204;51.262;5.488;2023-02-26T01:49:25;16.08;;;5.07;;
26536;SDS011;14204;51.262;5.488;2023-02-26T01:54:34;14.43;;;4.93;;
26536;SDS011;14204;51.262;5.488;2023-02-26T01:57:05;17.55;;;5.35;;
26536;SDS011;14204;51.262;5.488;2023-02-26T01:59:35;14.52;;;5.60;;
26536;SDS011;14204;51.262;5.488;2023-02-26T02:02:04;13.23;;;5.15;;
26536;SDS011;14204;51.262;5.488;2023-02-26T02:04:31;15.82;;;5.28;;
26536;SDS011;14204;51.262;5.488;2023-02-26T02:06:58;15.45;;;5.18;;
26536;SDS011;14204;51.262;5.488;2023-02-26T02:09:24;16.55;;;4.80;;
26536;SDS011;14204;51.262;5.488;2023-02-26T02:12:07;10.57;;;4.05;;
26536;SDS011;14204;51.262;5.488;2023-02-26T02:14:50;12.25;;;4.15;;
26536;SDS011;14204;51.262;5.488;2023-02-26T02:20:13;15.82;;;3.80;;
26536;SDS011;14204;51.262;5.488;2023-02-26T02:26:00;12.93;;;4.93;;
26536;SDS011;14204;51.262;5.488;2023-02-26T02:31:53;14.30;;;3.88;;
26536;SDS011;14204;51.262;5.488;2023-02-26T02:37:13;8.88;;;4.00;;
26536;SDS011;14204;51.262;5.488;2023-02-26T02:39:45;13.52;;;4.57;;
26536;SDS011;14204;51.262;5.488;2023-02-26T02:42:18;11.18;;;3.33;;
26536;SDS011;14204;51.262;5.488;2023-02-26T02:48:00;10.65;;;3.15;;
26536;SDS011;14204;51.262;5.488;2023-02-26T02:50:41;7.78;;;3.17;;
26536;SDS011;14204;51.262;5.488;2023-02-26T02:53:13;9.63;;;2.92;;
26536;SDS011;14204;51.262;5.488;2023-02-26T02:55:55;16.30;;;3.65;;
26536;SDS011;14204;51.262;5.488;2023-02-26T02:58:29;9.75;;;3.03;;
26536;SDS011;14204;51.262;5.488;2023-02-26T03:01:00;9.07;;;3.08;;
26536;SDS011;14204;51.262;5.488;2023-02-26T03:06:21;9.90;;;3.30;;
26536;SDS011;14204;51.262;5.488;2023-02-26T03:08:47;13.80;;;4.40;;
26536;SDS011;14204;51.262;5.488;2023-02-26T03:11:13;8.80;;;3.25;;
26536;SDS011;14204;51.262;5.488;2023-02-26T03:13:39;11.70;;;2.97;;
26536;SDS011;14204;51.262;5.488;2023-02-26T03:21:35;9.35;;;3.92;;
26536;SDS011;14204;51.262;5.488;2023-02-26T03:24:13;18.27;;;3.60;;
26536;SDS011;14204;51.262;5.488;2023-02-26T03:27:12;10.38;;;3.25;;
26536;SDS011;14204;51.262;5.488;2023-02-26T03:29:47;9.50;;;3.20;;
26536;SDS011;14204;51.262;5.488;2023-02-26T03:32:30;13.30;;;3.50;;
26536;SDS011;14204;51.262;5.488;2023-02-26T03:35:06;8.85;;;3.15;;
26536;SDS011;14204;51.262;5.488;2023-02-26T03:37:47;7.57;;;3.00;;
26536;SDS011;14204;51.262;5.488;2023-02-26T03:40:18;11.05;;;2.50;;
26536;SDS011;14204;51.262;5.488;2023-02-26T03:42:54;9.30;;;3.03;;
26536;SDS011;14204;51.262;5.488;2023-02-26T03:45:29;9.27;;;2.70;;
26536;SDS011;14204;51.262;5.488;2023-02-26T03:47:58;24.02;;;2.92;;
26536;SDS011;14204;51.262;5.488;2023-02-26T03:53:11;8.88;;;2.90;;
26536;SDS011;14204;51.262;5.488;2023-02-26T03:55:42;10.90;;;2.70;;
26536;SDS011;14204;51.262;5.488;2023-02-26T03:58:17;10.52;;;3.38;;
26536;SDS011;14204;51.262;5.488;2023-02-26T04:00:44;11.68;;;2.80;;
26536;SDS011;14204;51.262;5.488;2023-02-26T04:03:19;6.70;;;2.80;;
26536;SDS011;14204;51.262;5.488;2023-02-26T04:05:52;10.18;;;2.72;;
26536;SDS011;14204;51.262;5.488;2023-02-26T04:08:19;8.30;;;2.20;;
26536;SDS011;14204;51.262;5.488;2023-02-26T04:10:47;9.52;;;2.20;;
26536;SDS011;14204;51.262;5.488;2023-02-26T04:13:18;4.07;;;2.10;;
26536;SDS011;14204;51.262;5.488;2023-02-26T04:15:44;6.05;;;1.80;;
26536;SDS011;14204;51.262;5.488;2023-02-26T04:18:10;6.30;;;2.00;;
26536;SDS011;14204;51.262;5.488;2023-02-26T04:20:35;8.05;;;1.95;;
26536;SDS011;14204;51.262;5.488;2023-02-26T04:23:01;12.45;;;2.70;;
26536;SDS011;14204;51.262;5.488;2023-02-26T04:25:26;6.55;;;1.75;;
26536;SDS011;14204;51.262;5.488;2023-02-26T04:27:52;4.85;;;1.60;;
26536;SDS011;14204;51.262;5.488;2023-02-26T04:30:18;11.68;;;1.77;;
26536;SDS011;14204;51.262;5.488;2023-02-26T04:32:43;11.48;;;1.80;;
26536;SDS011;14204;51.262;5.488;2023-02-26T04:35:09;8.35;;;1.90;;
26536;SDS011;14204;51.262;5.488;2023-02-26T04:37:35;8.02;;;1.98;;
26536;SDS011;14204;51.262;5.488;2023-02-26T04:40:00;3.33;;;1.60;;
26536;SDS011;14204;51.262;5.488;2023-02-26T04:42:26;5.10;;;1.77;;
26536;SDS011;14204;51.262;5.488;2023-02-26T04:44:51;7.57;;;2.10;;
26536;SDS011;14204;51.262;5.488;2023-02-26T04:47:17;7.03;;;2.10;;
26536;SDS011;14204;51.262;5.488;2023-02-26T04:49:42;8.27;;;2.03;;
26536;SDS011;14204;51.262;5.488;2023-02-26T04:52:08;5.90;;;1.60;;
26536;SDS011;14204;51.262;5.488;2023-02-26T04:54:33;6.38;;;1.88;;
26536;SDS011;14204;51.262;5.488;2023-02-26T04:56:59;5.47;;;1.85;;
26536;SDS011;14204;51.262;5.488;2023-02-26T04:59:25;9.63;;;2.10;;
26536;SDS011;14204;51.262;5.488;2023-02-26T05:01:50;8.27;;;2.22;;
26536;SDS011;14204;51.262;5.488;2023-02-26T05:04:16;8.68;;;1.40;;
26536;SDS011;14204;51.262;5.488;2023-02-26T05:06:42;8.63;;;2.40;;
26536;SDS011;14204;51.262;5.488;2023-02-26T05:09:07;6.55;;;1.90;;
26536;SDS011;14204;51.262;5.488;2023-02-26T05:11:33;8.25;;;1.83;;
26536;SDS011;14204;51.262;5.488;2023-02-26T05:13:58;5.97;;;2.03;;
26536;SDS011;14204;51.262;5.488;2023-02-26T05:16:24;5.20;;;1.65;;
26536;SDS011;14204;51.262;5.488;2023-02-26T05:18:49;10.70;;;2.47;;
26536;SDS011;14204;51.262;5.488;2023-02-26T05:21:15;8.48;;;1.90;;
26536;SDS011;14204;51.262;5.488;2023-02-26T05:23:41;9.35;;;2.35;;
26536;SDS011;14204;51.262;5.488;2023-02-26T05:26:06;10.68;;;1.98;;
26536;SDS011;14204;51.262;5.488;2023-02-26T05:28:32;7.97;;;1.60;;
26536;SDS011;14204;51.262;5.488;2023-02-26T05:30:58;9.35;;;1.83;;
26536;SDS011;14204;51.262;5.488;2023-02-26T05:33:24;13.00;;;1.88;;
26536;SDS011;14204;51.262;5.488;2023-02-26T05:35:50;14.07;;;1.80;;
26536;SDS011;14204;51.262;5.488;2023-02-26T05:38:16;5.70;;;1.60;;
26536;SDS011;14204;51.262;5.488;2023-02-26T05:40:42;5.22;;;1.98;;
26536;SDS011;14204;51.262;5.488;2023-02-26T05:43:08;7.15;;;1.83;;
26536;SDS011;14204;51.262;5.488;2023-02-26T05:45:34;4.75;;;1.77;;
26536;SDS011;14204;51.262;5.488;2023-02-26T05:48:00;8.13;;;2.13;;
26536;SDS011;14204;51.262;5.488;2023-02-26T05:50:26;12.55;;;2.00;;
26536;SDS011;14204;51.262;5.488;2023-02-26T05:52:51;11.43;;;2.28;;
26536;SDS011;14204;51.262;5.488;2023-02-26T05:55:17;13.10;;;2.45;;
26536;SDS011;14204;51.262;5.488;2023-02-26T05:57:43;4.95;;;1.83;;
26536;SDS011;14204;51.262;5.488;2023-02-26T06:00:09;8.57;;;1.77;;
26536;SDS011;14204;51.262;5.488;2023-02-26T06:02:35;10.40;;;2.30;;
26536;SDS011;14204;51.262;5.488;2023-02-26T06:05:01;6.47;;;1.73;;
26536;SDS011;14204;51.262;5.488;2023-02-26T06:07:27;7.53;;;1.80;;
26536;SDS011;14204;51.262;5.488;2023-02-26T06:09:53;8.20;;;2.00;;
26536;SDS011;14204;51.262;5.488;2023-02-26T06:12:18;8.40;;;1.83;;
26536;SDS011;14204;51.262;5.488;2023-02-26T06:14:44;7.07;;;2.03;;
26536;SDS011;14204;51.262;5.488;2023-02-26T06:17:09;7.57;;;2.20;;
26536;SDS011;14204;51.262;5.488;2023-02-26T06:19:35;8.32;;;1.75;;
26536;SDS011;14204;51.262;5.488;2023-02-26T06:22:00;12.15;;;2.63;;
26536;SDS011;14204;51.262;5.488;2023-02-26T06:24:26;7.68;;;1.52;;
26536;SDS011;14204;51.262;5.488;2023-02-26T06:26:52;8.10;;;2.10;;
26536;SDS011;14204;51.262;5.488;2023-02-26T06:29:17;10.75;;;2.15;;
26536;SDS011;14204;51.262;5.488;2023-02-26T06:31:44;9.68;;;1.85;;
26536;SDS011;14204;51.262;5.488;2023-02-26T06:34:11;6.93;;;1.75;;
26536;SDS011;14204;51.262;5.488;2023-02-26T06:36:36;3.75;;;1.25;;
26536;SDS011;14204;51.262;5.488;2023-02-26T06:39:02;6.35;;;1.65;;
26536;SDS011;14204;51.262;5.488;2023-02-26T06:41:28;6.68;;;1.50;;
26536;SDS011;14204;51.262;5.488;2023-02-26T06:43:54;6.50;;;1.70;;
26536;SDS011;14204;51.262;5.488;2023-02-26T06:46:19;9.25;;;1.85;;
26536;SDS011;14204;51.262;5.488;2023-02-26T06:48:45;8.13;;;1.63;;
26536;SDS011;14204;51.262;5.488;2023-02-26T06:51:10;7.00;;;2.50;;
26536;SDS011;14204;51.262;5.488;2023-02-26T06:53:36;13.40;;;3.05;;
26536;SDS011;14204;51.262;5.488;2023-02-26T06:56:01;8.32;;;3.10;;
26536;SDS011;14204;51.262;5.488;2023-02-26T06:58:27;13.23;;;3.33;;
26536;SDS011;14204;51.262;5.488;2023-02-26T07:00:53;5.85;;;1.98;;
26536;SDS011;14204;51.262;5.488;2023-02-26T07:03:18;8.88;;;2.00;;
26536;SDS011;14204;51.262;5.488;2023-02-26T07:05:44;10.63;;;2.58;;
26536;SDS011;14204;51.262;5.488;2023-02-26T07:08:10;10.38;;;2.17;;
26536;SDS011;14204;51.262;5.488;2023-02-26T07:10:37;6.80;;;2.50;;
26536;SDS011;14204;51.262;5.488;2023-02-26T07:13:03;9.32;;;1.95;;
26536;SDS011;14204;51.262;5.488;2023-02-26T07:15:29;7.55;;;2.30;;
26536;SDS011;14204;51.262;5.488;2023-02-26T07:17:55;6.88;;;1.42;;
26536;SDS011;14204;51.262;5.488;2023-02-26T07:20:20;8.35;;;1.85;;
26536;SDS011;14204;51.262;5.488;2023-02-26T07:22:46;7.70;;;2.25;;
26536;SDS011;14204;51.262;5.488;2023-02-26T07:25:13;12.70;;;3.30;;
26536;SDS011;14204;51.262;5.488;2023-02-26T07:27:38;8.68;;;2.35;;
26536;SDS011;14204;51.262;5.488;2023-02-26T07:30:05;8.15;;;2.58;;
26536;SDS011;14204;51.262;5.488;2023-02-26T07:32:31;6.72;;;1.92;;
26536;SDS011;14204;51.262;5.488;2023-02-26T07:34:57;10.57;;;2.50;;
26536;SDS011;14204;51.262;5.488;2023-02-26T07:37:23;8.90;;;2.80;;
26536;SDS011;14204;51.262;5.488;2023-02-26T07:39:49;4.75;;;2.42;;
26536;SDS011;14204;51.262;5.488;2023-02-26T07:42:15;8.48;;;3.35;;
26536;SDS011;14204;51.262;5.488;2023-02-26T07:44:41;6.10;;;2.22;;
26536;SDS011;14204;51.262;5.488;2023-02-26T07:47:06;14.10;;;2.58;;
26536;SDS011;14204;51.262;5.488;2023-02-26T07:49:32;6.65;;;1.90;;
26536;SDS011;14204;51.262;5.488;2023-02-26T07:51:58;11.70;;;1.88;;
26536;SDS011;14204;51.262;5.488;2023-02-26T07:54:24;6.90;;;1.73;;
26536;SDS011;14204;51.262;5.488;2023-02-26T07:56:50;6.95;;;1.42;;
26536;SDS011;14204;51.262;5.488;2023-02-26T07:59:16;5.82;;;1.38;;
26536;SDS011;14204;51.262;5.488;2023-02-26T08:01:41;4.53;;;1.08;;
26536;SDS011;14204;51.262;5.488;2023-02-26T08:04:07;8.40;;;1.48;;
26536;SDS011;14204;51.262;5.488;2023-02-26T08:06:33;8.30;;;1.50;;
26536;SDS011;14204;51.262;5.488;2023-02-26T08:08:59;7.22;;;1.50;;
26536;SDS011;14204;51.262;5.488;2023-02-26T08:11:25;8.65;;;1.50;;
26536;SDS011;14204;51.262;5.488;2023-02-26T08:13:51;12.05;;;2.30;;
26536;SDS011;14204;51.262;5.488;2023-02-26T08:16:17;12.63;;;1.40;;
26536;SDS011;14204;51.262;5.488;2023-02-26T08:18:42;6.10;;;1.95;;
26536;SDS011;14204;51.262;5.488;2023-02-26T08:21:08;6.22;;;1.80;;
26536;SDS011;14204;51.262;5.488;2023-02-26T08:23:34;10.98;;;1.50;;
26536;SDS011;14204;51.262;5.488;2023-02-26T08:26:03;6.25;;;1.30;;
26536;SDS011;14204;51.262;5.488;2023-02-26T08:28:31;5.70;;;1.42;;
26536;SDS011;14204;51.262;5.488;2023-02-26T08:30:57;7.65;;;1.33;;
26536;SDS011;14204;51.262;5.488;2023-02-26T08:33:24;6.07;;;1.60;;
26536;SDS011;14204;51.262;5.488;2023-02-26T08:35:49;4.40;;;1.23;;
26536;SDS011;14204;51.262;5.488;2023-02-26T08:38:15;6.20;;;1.45;;
26536;SDS011;14204;51.262;5.488;2023-02-26T08:40:41;2.70;;;1.00;;
26536;SDS011;14204;51.262;5.488;2023-02-26T08:43:07;8.30;;;1.02;;
26536;SDS011;14204;51.262;5.488;2023-02-26T08:45:35;5.25;;;1.00;;
26536;SDS011;14204;51.262;5.488;2023-02-26T08:48:01;6.18;;;1.52;;
26536;SDS011;14204;51.262;5.488;2023-02-26T08:50:27;8.50;;;1.98;;
26536;SDS011;14204;51.262;5.488;2023-02-26T08:52:52;5.75;;;1.30;;
26536;SDS011;14204;51.262;5.488;2023-02-26T08:55:18;5.88;;;0.93;;
26536;SDS011;14204;51.262;5.488;2023-02-26T08:57:43;4.90;;;1.48;;
26536;SDS011;14204;51.262;5.488;2023-02-26T09:00:09;9.15;;;1.00;;
26536;SDS011;14204;51.262;5.488;2023-02-26T09:02:38;3.13;;;1.00;;
26536;SDS011;14204;51.262;5.488;2023-02-26T09:05:04;3.53;;;1.30;;
26536;SDS011;14204;51.262;5.488;2023-02-26T09:07:30;2.60;;;0.90;;
26536;SDS011;14204;51.262;5.488;2023-02-26T09:09:55;5.63;;;1.15;;
26536;SDS011;14204;51.262;5.488;2023-02-26T09:12:21;9.02;;;1.55;;
26536;SDS011;14204;51.262;5.488;2023-02-26T09:14:47;5.53;;;1.27;;
26536;SDS011;14204;51.262;5.488;2023-02-26T09:17:12;4.43;;;1.05;;
26536;SDS011;14204;51.262;5.488;2023-02-26T09:19:38;5.47;;;1.13;;
26536;SDS011;14204;51.262;5.488;2023-02-26T09:22:04;7.25;;;1.38;;
26536;SDS011;14204;51.262;5.488;2023-02-26T09:24:29;4.38;;;1.20;;
26536;SDS011;14204;51.262;5.488;2023-02-26T09:26:55;6.38;;;0.90;;
26536;SDS011;14204;51.262;5.488;2023-02-26T09:29:20;3.75;;;0.90;;
26536;SDS011;14204;51.262;5.488;2023-02-26T09:31:46;4.70;;;0.98;;
26536;SDS011;14204;51.262;5.488;2023-02-26T09:34:11;3.60;;;1.10;;
26536;SDS011;14204;51.262;5.488;2023-02-26T09:36:37;3.55;;;0.95;;
26536;SDS011;14204;51.262;5.488;2023-02-26T09:39:04;4.15;;;1.10;;
26536;SDS011;14204;51.262;5.488;2023-02-26T09:41:30;3.63;;;1.00;;
26536;SDS011;14204;51.262;5.488;2023-02-26T09:52:23;4.60;;;0.75;;
26536;SDS011;14204;51.262;5.488;2023-02-26T09:54:53;2.75;;;0.80;;
26536;SDS011;14204;51.262;5.488;2023-02-26T09:57:29;3.97;;;0.70;;
26536;SDS011;14204;51.262;5.488;2023-02-26T09:59:57;4.22;;;0.93;;
26536;SDS011;14204;51.262;5.488;2023-02-26T10:07:43;3.53;;;0.80;;
26536;SDS011;14204;51.262;5.488;2023-02-26T10:13:45;4.38;;;0.90;;
26536;SDS011;14204;51.262;5.488;2023-02-26T10:16:17;5.65;;;1.00;;
26536;SDS011;14204;51.262;5.488;2023-02-26T10:18:50;1.10;;;0.60;;
26536;SDS011;14204;51.262;5.488;2023-02-26T10:21:22;6.00;;;0.77;;
26536;SDS011;14204;51.262;5.488;2023-02-26T10:23:57;2.08;;;1.00;;
26536;SDS011;14204;51.262;5.488;2023-02-26T10:26:40;2.03;;;0.73;;
26536;SDS011;14204;51.262;5.488;2023-02-26T10:29:22;7.57;;;0.77;;
26536;SDS011;14204;51.262;5.488;2023-02-26T10:35:21;4.32;;;0.60;;
26536;SDS011;14204;51.262;5.488;2023-02-26T10:37:57;2.83;;;0.70;;
26536;SDS011;14204;51.262;5.488;2023-02-26T10:40:31;4.40;;;0.65;;
26536;SDS011;14204;51.262;5.488;2023-02-26T10:51:14;2.10;;;0.60;;
26536;SDS011;14204;51.262;5.488;2023-02-26T10:53:50;2.40;;;0.80;;
26536;SDS011;14204;51.262;5.488;2023-02-26T10:56:21;2.22;;;0.40;;
26536;SDS011;14204;51.262;5.488;2023-02-26T10:58:50;1.95;;;0.65;;
26536;SDS011;14204;51.262;5.488;2023-02-26T11:01:17;1.50;;;0.93;;
26536;SDS011;14204;51.262;5.488;2023-02-26T11:03:49;1.00;;;0.38;;
26536;SDS011;14204;51.262;5.488;2023-02-26T11:06:20;1.48;;;0.50;;
26536;SDS011;14204;51.262;5.488;2023-02-26T11:09:21;8.23;;;0.70;;
26536;SDS011;14204;51.262;5.488;2023-02-26T11:14:18;3.42;;;0.60;;
26536;SDS011;14204;51.262;5.488;2023-02-26T11:16:57;2.00;;;0.60;;
26536;SDS011;14204;51.262;5.488;2023-02-26T11:19:32;4.05;;;0.63;;
26536;SDS011;14204;51.262;5.488;2023-02-26T11:22:00;2.53;;;0.63;;
26536;SDS011;14204;51.262;5.488;2023-02-26T11:24:35;1.77;;;0.50;;
26536;SDS011;14204;51.262;5.488;2023-02-26T11:27:06;1.98;;;0.90;;
26536;SDS011;14204;51.262;5.488;2023-02-26T11:29:38;1.85;;;0.50;;
26536;SDS011;14204;51.262;5.488;2023-02-26T11:32:06;1.73;;;0.60;;
26536;SDS011;14204;51.262;5.488;2023-02-26T11:34:42;5.05;;;0.80;;
26536;SDS011;14204;51.262;5.488;2023-02-26T11:37:12;1.42;;;0.40;;
26536;SDS011;14204;51.262;5.488;2023-02-26T11:39:43;1.83;;;0.50;;
26536;SDS011;14204;51.262;5.488;2023-02-26T11:42:10;1.95;;;0.70;;
26536;SDS011;14204;51.262;5.488;2023-02-26T11:44:38;1.77;;;0.80;;
26536;SDS011;14204;51.262;5.488;2023-02-26T11:47:14;2.10;;;0.57;;
26536;SDS011;14204;51.262;5.488;2023-02-26T11:49:44;1.45;;;0.52;;
26536;SDS011;14204;51.262;5.488;2023-02-26T11:55:19;3.40;;;0.70;;
26536;SDS011;14204;51.262;5.488;2023-02-26T11:57:51;2.33;;;0.60;;
26536;SDS011;14204;51.262;5.488;2023-02-26T12:00:36;2.38;;;0.40;;
26536;SDS011;14204;51.262;5.488;2023-02-26T12:03:07;2.15;;;0.60;;
26536;SDS011;14204;51.262;5.488;2023-02-26T12:05:41;4.03;;;0.95;;
26536;SDS011;14204;51.262;5.488;2023-02-26T12:08:14;3.30;;;0.80;;
26536;SDS011;14204;51.262;5.488;2023-02-26T12:10:59;1.95;;;0.68;;
26536;SDS011;14204;51.262;5.488;2023-02-26T12:16:44;1.95;;;0.63;;
26536;SDS011;14204;51.262;5.488;2023-02-26T12:33:31;2.55;;;0.70;;
26536;SDS011;14204;51.262;5.488;2023-02-26T12:38:59;4.03;;;1.02;;
26536;SDS011;14204;51.262;5.488;2023-02-26T12:42:00;3.65;;;0.60;;
26536;SDS011;14204;51.262;5.488;2023-02-26T12:47:40;3.22;;;0.70;;
26536;SDS011;14204;51.262;5.488;2023-02-26T12:53:33;2.58;;;0.50;;
26536;SDS011;14204;51.262;5.488;2023-02-26T12:56:11;2.05;;;0.73;;
26536;SDS011;14204;51.262;5.488;2023-02-26T13:01:36;2.88;;;0.70;;
26536;SDS011;14204;51.262;5.488;2023-02-26T13:04:09;1.02;;;0.70;;
26536;SDS011;14204;51.262;5.488;2023-02-26T13:20:32;3.00;;;0.60;;
26536;SDS011;14204;51.262;5.488;2023-02-26T13:23:18;2.80;;;0.68;;
26536;SDS011;14204;51.262;5.488;2023-02-26T13:25:52;3.17;;;0.80;;
26536;SDS011;14204;51.262;5.488;2023-02-26T13:30:51;1.40;;;0.57;;
26536;SDS011;14204;51.262;5.488;2023-02-26T13:33:19;2.45;;;0.63;;
26536;SDS011;14204;51.262;5.488;2023-02-26T13:35:52;1.48;;;0.70;;
26536;SDS011;14204;51.262;5.488;2023-02-26T13:41:19;2.30;;;0.60;;
26536;SDS011;14204;51.262;5.488;2023-02-26T13:46:43;3.10;;;0.68;;
26536;SDS011;14204;51.262;5.488;2023-02-26T13:49:32;2.03;;;0.40;;
26536;SDS011;14204;51.262;5.488;2023-02-26T13:52:29;2.95;;;0.73;;
26536;SDS011;14204;51.262;5.488;2023-02-26T13:54:56;1.88;;;0.52;;
26536;SDS011;14204;51.262;5.488;2023-02-26T14:05:52;1.73;;;0.45;;
26536;SDS011;14204;51.262;5.488;2023-02-26T14:11:03;3.13;;;1.02;;
26536;SDS011;14204;51.262;5.488;2023-02-26T14:14:09;1.05;;;0.40;;
26536;SDS011;14204;51.262;5.488;2023-02-26T14:16:54;1.00;;;0.50;;
26536;SDS011;14204;51.262;5.488;2023-02-26T14:19:42;3.70;;;0.60;;
26536;SDS011;14204;51.262;5.488;2023-02-26T14:27:47;2.75;;;0.60;;
26536;SDS011;14204;51.262;5.488;2023-02-26T14:30:15;1.92;;;0.68;;
26536;SDS011;14204;51.262;5.488;2023-02-26T14:35:27;2.55;;;0.70;;
26536;SDS011;14204;51.262;5.488;2023-02-26T14:40:28;4.47;;;0.68;;
26536;SDS011;14204;51.262;5.488;2023-02-26T14:43:01;4.20;;;0.60;;
26536;SDS011;14204;51.262;5.488;2023-02-26T14:45:36;3.53;;;0.70;;
26536;SDS011;14204;51.262;5.488;2023-02-26T14:48:04;1.38;;;0.50;;
26536;SDS011;14204;51.262;5.488;2023-02-26T14:51:01;2.17;;;0.73;;
26536;SDS011;14204;51.262;5.488;2023-02-26T14:56:07;3.42;;;0.75;;
26536;SDS011;14204;51.262;5.488;2023-02-26T14:59:00;2.83;;;0.90;;
26536;SDS011;14204;51.262;5.488;2023-02-26T15:02:13;3.55;;;0.75;;
26536;SDS011;14204;51.262;5.488;2023-02-26T15:10:04;3.83;;;0.70;;
26536;SDS011;14204;51.262;5.488;2023-02-26T15:13:05;2.30;;;0.80;;
26536;SDS011;14204;51.262;5.488;2023-02-26T15:26:30;1.38;;;0.63;;
26536;SDS011;14204;51.262;5.488;2023-02-26T15:28:59;0.77;;;0.70;;
26536;SDS011;14204;51.262;5.488;2023-02-26T15:31:35;3.15;;;1.02;;
26536;SDS011;14204;51.262;5.488;2023-02-26T15:34:05;3.75;;;0.85;;
26536;SDS011;14204;51.262;5.488;2023-02-26T15:36:34;2.58;;;0.80;;
26536;SDS011;14204;51.262;5.488;2023-02-26T15:39:00;2.25;;;0.98;;
26536;SDS011;14204;51.262;5.488;2023-02-26T15:41:31;3.47;;;0.70;;
26536;SDS011;14204;51.262;5.488;2023-02-26T15:44:05;1.55;;;0.70;;
26536;SDS011;14204;51.262;5.488;2023-02-26T15:46:42;1.42;;;0.70;;
26536;SDS011;14204;51.262;5.488;2023-02-26T15:49:12;1.35;;;0.60;;
26536;SDS011;14204;51.262;5.488;2023-02-26T15:51:47;1.55;;;0.93;;
26536;SDS011;14204;51.262;5.488;2023-02-26T15:54:15;2.30;;;0.80;;
26536;SDS011;14204;51.262;5.488;2023-02-26T15:56:43;5.45;;;1.52;;
26536;SDS011;14204;51.262;5.488;2023-02-26T15:59:11;4.47;;;0.70;;
26536;SDS011;14204;51.262;5.488;2023-02-26T16:01:41;1.55;;;0.70;;
26536;SDS011;14204;51.262;5.488;2023-02-26T16:04:10;2.78;;;0.73;;
26536;SDS011;14204;51.262;5.488;2023-02-26T16:06:42;2.45;;;0.75;;
26536;SDS011;14204;51.262;5.488;2023-02-26T16:09:15;6.10;;;1.13;;
26536;SDS011;14204;51.262;5.488;2023-02-26T16:11:56;2.65;;;0.90;;
26536;SDS011;14204;51.262;5.488;2023-02-26T16:14:25;5.40;;;0.90;;
26536;SDS011;14204;51.262;5.488;2023-02-26T16:16:55;2.30;;;0.65;;
26536;SDS011;14204;51.262;5.488;2023-02-26T16:19:43;2.75;;;0.73;;
26536;SDS011;14204;51.262;5.488;2023-02-26T16:22:46;2.03;;;0.70;;
26536;SDS011;14204;51.262;5.488;2023-02-26T16:25:13;4.93;;;0.75;;
26536;SDS011;14204;51.262;5.488;2023-02-26T16:27:39;2.55;;;0.70;;
26536;SDS011;14204;51.262;5.488;2023-02-26T16:30:12;3.58;;;0.80;;
26536;SDS011;14204;51.262;5.488;2023-02-26T16:32:42;4.65;;;0.93;;
26536;SDS011;14204;51.262;5.488;2023-02-26T16:35:14;4.95;;;1.00;;
26536;SDS011;14204;51.262;5.488;2023-02-26T16:37:44;4.80;;;0.70;;
26536;SDS011;14204;51.262;5.488;2023-02-26T16:43:01;1.30;;;0.63;;
26536;SDS011;14204;51.262;5.488;2023-02-26T16:48:00;2.45;;;0.90;;
26536;SDS011;14204;51.262;5.488;2023-02-26T16:50:30;0.40;;;0.40;;
26536;SDS011;14204;51.262;5.488;2023-02-26T16:53:17;2.33;;;0.70;;
26536;SDS011;14204;51.262;5.488;2023-02-26T16:55:46;1.45;;;0.70;;
26536;SDS011;14204;51.262;5.488;2023-02-26T16:58:17;1.98;;;0.93;;
26536;SDS011;14204;51.262;5.488;2023-02-26T17:00:46;1.80;;;0.95;;
26536;SDS011;14204;51.262;5.488;2023-02-26T17:03:20;5.43;;;0.88;;
26536;SDS011;14204;51.262;5.488;2023-02-26T17:06:02;3.15;;;0.98;;
26536;SDS011;14204;51.262;5.488;2023-02-26T17:08:41;2.45;;;1.02;;
26536;SDS011;14204;51.262;5.488;2023-02-26T17:14:08;3.22;;;0.88;;
26536;SDS011;14204;51.262;5.488;2023-02-26T17:16:39;1.95;;;1.23;;
26536;SDS011;14204;51.262;5.488;2023-02-26T17:19:05;2.45;;;0.93;;
26536;SDS011;14204;51.262;5.488;2023-02-26T17:21:30;7.28;;;2.08;;
26536;SDS011;14204;51.262;5.488;2023-02-26T17:23:56;3.15;;;1.55;;
26536;SDS011;14204;51.262;5.488;2023-02-26T17:26:22;3.40;;;1.77;;
26536;SDS011;14204;51.262;5.488;2023-02-26T17:28:49;4.70;;;1.48;;
26536;SDS011;14204;51.262;5.488;2023-02-26T17:31:15;3.80;;;1.42;;
26536;SDS011;14204;51.262;5.488;2023-02-26T17:33:41;2.88;;;0.90;;
26536;SDS011;14204;51.262;5.488;2023-02-26T17:36:14;2.85;;;1.05;;
26536;SDS011;14204;51.262;5.488;2023-02-26T17:38:42;4.68;;;1.20;;
26536;SDS011;14204;51.262;5.488;2023-02-26T17:41:11;4.85;;;1.92;;
26536;SDS011;14204;51.262;5.488;2023-02-26T17:43:40;4.13;;;1.98;;
26536;SDS011;14204;51.262;5.488;2023-02-26T17:46:08;7.38;;;3.63;;
26536;SDS011;14204;51.262;5.488;2023-02-26T17:48:35;4.90;;;2.53;;
26536;SDS011;14204;51.262;5.488;2023-02-26T17:51:01;3.60;;;2.35;;
26536;SDS011;14204;51.262;5.488;2023-02-26T17:53:28;3.47;;;1.95;;
26536;SDS011;14204;51.262;5.488;2023-02-26T17:55:58;2.70;;;2.10;;
26536;SDS011;14204;51.262;5.488;2023-02-26T17:58:32;3.75;;;1.70;;
26536;SDS011;14204;51.262;5.488;2023-02-26T18:00:58;3.28;;;1.70;;
26536;SDS011;14204;51.262;5.488;2023-02-26T18:03:25;2.42;;;1.17;;
26536;SDS011;14204;51.262;5.488;2023-02-26T18:05:51;4.13;;;1.38;;
26536;SDS011;14204;51.262;5.488;2023-02-26T18:08:23;2.63;;;1.50;;
26536;SDS011;14204;51.262;5.488;2023-02-26T18:10:50;2.05;;;1.00;;
26536;SDS011;14204;51.262;5.488;2023-02-26T18:13:17;3.72;;;0.95;;